createdAt,value
2022-10-26T00:00:48.500Z,1.92
2022-10-26T00:03:16.005Z,2.10
2022-10-26T00:05:43.365Z,2.20
2022-10-26T00:08:11.258Z,2.03
2022-10-26T00:10:39.240Z,2.17
2022-10-26T00:13:09.073Z,2.10
2022-10-26T00:15:40.107Z,2.05
2022-10-26T00:18:07.414Z,1.80
2022-10-26T00:20:34.795Z,3.30
2022-10-26T00:23:02.138Z,1.40
2022-10-26T00:25:29.516Z,1.77
2022-10-26T00:27:56.834Z,1.50
2022-10-26T00:30:24.487Z,1.90
2022-10-26T00:32:51.835Z,2.13
2022-10-26T00:35:23.301Z,1.75
2022-10-26T00:37:56.067Z,1.45
2022-10-26T00:40:28.190Z,2.80
2022-10-26T00:42:55.571Z,2.40
2022-10-26T00:45:27.037Z,1.50
2022-10-26T00:48:02.521Z,1.80
2022-10-26T00:50:33.246Z,1.52
2022-10-26T00:53:01.415Z,2.05
2022-10-26T00:55:32.563Z,2.08
2022-10-26T00:58:00.327Z,2.13
2022-10-26T01:00:27.685Z,1.83
2022-10-26T01:02:55.837Z,2.10
2022-10-26T01:05:23.216Z,3.00
2022-10-26T01:07:52.081Z,1.80
2022-10-26T01:10:19.683Z,1.40
2022-10-26T01:12:47.172Z,1.65
2022-10-26T01:15:14.691Z,1.75
2022-10-26T01:18:03.036Z,2.20
2022-10-26T01:20:39.245Z,1.67
2022-10-26T01:23:11.191Z,2.05
2022-10-26T01:25:57.218Z,2.10
2022-10-26T01:28:30.505Z,1.98
2022-10-26T01:30:59.294Z,2.08
2022-10-26T01:33:40.018Z,2.15
2022-10-26T01:36:26.073Z,1.65
2022-10-26T01:38:53.803Z,2.20
2022-10-26T01:41:47.453Z,1.95
2022-10-26T01:44:24.529Z,2.30
2022-10-26T01:46:54.572Z,1.98
2022-10-26T01:49:26.015Z,2.80
2022-10-26T01:51:53.320Z,2.15
2022-10-26T01:54:20.671Z,2.00
2022-10-26T01:56:50.380Z,2.13
2022-10-26T01:59:29.883Z,2.17
2022-10-26T02:01:57.162Z,1.53
2022-10-26T02:04:43.399Z,1.70
2022-10-26T02:07:10.703Z,2.38
2022-10-26T02:10:04.190Z,1.80
2022-10-26T02:12:50.314Z,3.13
2022-10-26T02:15:26.884Z,1.63
2022-10-26T02:17:57.674Z,2.50
2022-10-26T02:20:28.476Z,2.40
2022-10-26T02:22:56.776Z,2.47
2022-10-26T02:25:29.259Z,2.10
2022-10-26T02:27:58.570Z,2.70
2022-10-26T02:30:26.335Z,2.45
2022-10-26T02:32:55.519Z,1.90
2022-10-26T02:35:28.284Z,2.55
2022-10-26T02:37:56.809Z,2.28
2022-10-26T02:40:27.123Z,2.15
2022-10-26T02:45:26.323Z,2.60
2022-10-26T02:47:54.625Z,2.30
2022-10-26T02:50:28.446Z,2.35
2022-10-26T02:53:03.153Z,2.95
2022-10-26T02:55:36.825Z,2.25
2022-10-26T02:58:14.604Z,2.53
2022-10-26T03:00:42.842Z,2.33
2022-10-26T03:03:10.178Z,2.20
2022-10-26T03:05:37.611Z,2.20
2022-10-26T03:08:04.994Z,2.28
2022-10-26T03:10:33.680Z,2.50
2022-10-26T03:13:00.980Z,1.98
2022-10-26T03:15:28.344Z,2.22
2022-10-26T03:17:55.653Z,2.30
2022-10-26T03:20:23.065Z,2.25
2022-10-26T03:22:50.442Z,2.60
2022-10-26T03:25:17.985Z,2.30
2022-10-26T03:27:47.149Z,2.13
2022-10-26T03:30:14.702Z,2.30
2022-10-26T03:32:42.011Z,2.60
2022-10-26T03:35:09.493Z,2.30
2022-10-26T03:37:36.814Z,2.10
2022-10-26T03:40:04.262Z,2.20
2022-10-26T03:42:34.519Z,2.65
2022-10-26T03:45:01.950Z,2.13
2022-10-26T03:47:29.270Z,3.30
2022-10-26T03:49:56.630Z,2.88
2022-10-26T03:52:24.735Z,2.45
2022-10-26T03:54:52.519Z,1.95
2022-10-26T03:57:19.837Z,2.15
2022-10-26T03:59:47.173Z,2.08
2022-10-26T04:02:15.275Z,2.35
2022-10-26T04:04:42.696Z,2.40
2022-10-26T04:07:10.089Z,2.55
2022-10-26T04:09:37.422Z,2.20
2022-10-26T04:12:04.898Z,2.08
2022-10-26T04:14:32.219Z,2.30
2022-10-26T04:16:59.565Z,2.30
2022-10-26T04:19:26.892Z,4.53
2022-10-26T04:21:54.232Z,2.22
2022-10-26T04:24:21.563Z,2.40
2022-10-26T04:26:48.953Z,2.90
2022-10-26T04:29:16.613Z,2.90
2022-10-26T04:34:16.513Z,2.38
2022-10-26T04:36:43.878Z,3.17
2022-10-26T04:39:11.211Z,3.05
2022-10-26T04:41:38.711Z,2.40
2022-10-26T04:44:06.209Z,3.20
2022-10-26T04:46:33.759Z,3.10
2022-10-26T04:49:01.217Z,2.50
2022-10-26T04:51:28.667Z,2.78
2022-10-26T04:53:57.113Z,2.40
2022-10-26T04:56:24.745Z,3.65
2022-10-26T04:58:54.351Z,2.72
2022-10-26T05:01:22.157Z,2.45
2022-10-26T05:03:50.846Z,3.55
2022-10-26T05:06:18.415Z,2.60
2022-10-26T05:08:45.915Z,2.90
2022-10-26T05:11:13.665Z,3.08
2022-10-26T05:13:41.208Z,3.20
2022-10-26T05:16:08.809Z,3.13
2022-10-26T05:18:36.118Z,3.13
2022-10-26T05:21:03.512Z,3.17
2022-10-26T05:23:30.980Z,3.40
2022-10-26T05:25:58.407Z,3.20
2022-10-26T05:28:25.715Z,3.28
2022-10-26T05:30:53.075Z,3.17
2022-10-26T05:33:20.443Z,3.53
2022-10-26T05:35:47.777Z,3.13
2022-10-26T05:38:18.007Z,3.22
2022-10-26T05:43:12.608Z,2.35
2022-10-26T05:45:40.272Z,2.75
2022-10-26T05:48:07.636Z,2.83
2022-10-26T05:50:35.050Z,2.90
2022-10-26T05:53:02.538Z,3.40
2022-10-26T05:55:30.139Z,3.47
2022-10-26T05:57:57.594Z,2.72
2022-10-26T06:00:26.263Z,2.47
2022-10-26T06:03:12.417Z,2.78
2022-10-26T06:05:52.473Z,3.53
2022-10-26T06:08:20.868Z,6.40
2022-10-26T06:10:48.600Z,2.70
2022-10-26T06:13:16.070Z,3.00
2022-10-26T06:15:53.270Z,2.72
2022-10-26T06:18:39.108Z,3.67
2022-10-26T06:21:24.749Z,3.63
2022-10-26T06:24:16.849Z,3.25
2022-10-26T06:26:44.176Z,2.90
2022-10-26T06:29:14.340Z,3.05
2022-10-26T06:31:41.695Z,3.33
2022-10-26T06:34:11.922Z,3.30
2022-10-26T06:36:40.475Z,3.42
2022-10-26T06:39:11.491Z,3.33
2022-10-26T06:41:39.018Z,3.20
2022-10-26T06:44:06.577Z,3.15
2022-10-26T06:46:37.538Z,2.85
2022-10-26T06:49:43.412Z,3.88
2022-10-26T06:52:16.436Z,2.97
2022-10-26T06:54:46.665Z,3.92
2022-10-26T06:57:14.968Z,4.32
2022-10-26T07:00:05.514Z,4.20
2022-10-26T07:02:33.133Z,4.32
2022-10-26T07:05:00.546Z,5.50
2022-10-26T07:07:29.708Z,4.05
2022-10-26T07:09:57.048Z,3.42
2022-10-26T07:12:24.408Z,3.83
2022-10-26T07:14:51.797Z,3.35
2022-10-26T07:17:19.234Z,3.83
2022-10-26T07:19:46.555Z,3.10
2022-10-26T07:22:13.918Z,3.45
2022-10-26T07:24:41.398Z,3.50
2022-10-26T07:27:09.060Z,3.47
2022-10-26T07:29:36.438Z,3.80
2022-10-26T07:32:03.832Z,3.05
2022-10-26T07:34:31.150Z,3.38
2022-10-26T07:37:00.045Z,3.55
2022-10-26T07:39:27.849Z,3.67
2022-10-26T07:41:55.354Z,4.63
2022-10-26T07:44:22.717Z,4.60
2022-10-26T07:46:50.065Z,4.57
2022-10-26T07:49:19.513Z,3.97
2022-10-26T07:51:47.523Z,3.85
2022-10-26T07:54:14.869Z,3.50
2022-10-26T07:56:42.208Z,5.57
2022-10-26T07:59:11.643Z,4.00
2022-10-26T08:01:39.067Z,5.03
2022-10-26T08:04:06.414Z,3.47
2022-10-26T08:06:33.879Z,3.65
2022-10-26T08:09:01.415Z,3.72
2022-10-26T08:11:28.923Z,4.30
2022-10-26T08:13:56.325Z,4.07
2022-10-26T08:16:23.743Z,4.22
2022-10-26T08:18:51.702Z,4.05
2022-10-26T08:21:22.178Z,3.53
2022-10-26T08:24:03.073Z,3.63
2022-10-26T08:26:30.949Z,3.95
2022-10-26T08:28:58.319Z,3.13
2022-10-26T08:31:25.682Z,2.88
2022-10-26T08:33:53.033Z,3.17
2022-10-26T08:36:26.895Z,2.17
2022-10-26T08:38:54.442Z,1.92
2022-10-26T08:41:31.392Z,1.77
2022-10-26T08:44:11.783Z,2.22
2022-10-26T08:49:37.987Z,1.90
2022-10-26T08:52:07.447Z,1.50
2022-10-26T08:54:45.145Z,1.93
2022-10-26T08:57:21.605Z,1.73
2022-10-26T08:59:55.082Z,1.95
2022-10-26T09:02:22.658Z,2.10
2022-10-26T09:04:50.013Z,2.88
2022-10-26T09:07:28.505Z,2.58
2022-10-26T09:10:07.514Z,2.42
2022-10-26T09:12:48.483Z,2.83
2022-10-26T09:15:25.245Z,3.03
2022-10-26T09:18:22.032Z,2.60
2022-10-26T09:20:54.263Z,2.42
2022-10-26T09:23:47.710Z,2.47
2022-10-26T09:26:16.091Z,2.30
2022-10-26T09:28:46.532Z,2.20
2022-10-26T09:31:16.288Z,2.05
2022-10-26T09:33:43.846Z,1.88
2022-10-26T09:36:20.898Z,1.85
2022-10-26T09:38:59.836Z,1.67
2022-10-26T09:41:38.737Z,2.70
2022-10-26T09:44:42.754Z,2.15
2022-10-26T09:47:10.225Z,1.85
2022-10-26T09:49:48.759Z,2.13
2022-10-26T09:52:16.791Z,1.70
2022-10-26T09:54:44.074Z,1.73
2022-10-26T09:57:16.222Z,2.22
2022-10-26T09:59:43.621Z,1.58
2022-10-26T10:02:29.648Z,1.45
2022-10-26T10:04:56.989Z,1.90
2022-10-26T10:07:24.531Z,2.10
2022-10-26T10:10:17.287Z,2.20
2022-10-26T10:12:45.411Z,1.75
2022-10-26T10:15:26.070Z,1.63
2022-10-26T10:17:56.243Z,2.03
2022-10-26T10:23:02.329Z,1.92
2022-10-26T10:25:40.173Z,1.90
2022-10-26T10:28:25.865Z,3.15
2022-10-26T10:30:59.998Z,3.72
2022-10-26T10:33:54.396Z,2.42
2022-10-26T10:36:24.405Z,2.47
2022-10-26T10:38:53.510Z,1.50
2022-10-26T10:41:29.520Z,1.85
2022-10-26T10:44:09.160Z,2.33
2022-10-26T10:46:37.823Z,1.85
2022-10-26T10:49:07.333Z,1.73
2022-10-26T10:51:40.432Z,1.95
2022-10-26T10:54:24.821Z,1.42
2022-10-26T10:56:54.207Z,2.50
2022-10-26T10:59:21.598Z,2.00
2022-10-26T11:02:12.285Z,1.50
2022-10-26T11:04:39.746Z,1.30
2022-10-26T11:07:08.130Z,1.88
2022-10-26T11:09:39.661Z,1.60
2022-10-26T11:12:23.557Z,2.05
2022-10-26T11:15:01.192Z,1.55
2022-10-26T11:17:32.671Z,1.73
2022-10-26T11:19:59.952Z,2.22
2022-10-26T11:22:30.011Z,1.90
2022-10-26T11:24:59.199Z,1.45
2022-10-26T11:27:39.855Z,2.10
2022-10-26T11:30:08.555Z,1.55
2022-10-26T11:32:42.409Z,1.55
2022-10-26T11:35:16.122Z,1.63
2022-10-26T11:37:50.717Z,1.63
2022-10-26T11:40:27.470Z,1.33
2022-10-26T11:43:24.464Z,1.50
2022-10-26T11:46:23.505Z,1.33
2022-10-26T11:48:53.954Z,1.45
2022-10-26T11:53:49.091Z,1.45
2022-10-26T11:56:46.566Z,1.75
2022-10-26T11:59:26.964Z,2.38
2022-10-26T12:02:02.640Z,2.08
2022-10-26T12:04:31.268Z,1.77
2022-10-26T12:07:01.086Z,2.08
2022-10-26T12:09:35.537Z,2.85
2022-10-26T12:12:35.072Z,1.95
2022-10-26T12:15:24.828Z,1.65
2022-10-26T12:18:13.706Z,1.85
2022-10-26T12:20:47.247Z,1.50
2022-10-26T12:23:23.082Z,1.90
2022-10-26T12:26:30.129Z,1.60
2022-10-26T12:29:03.480Z,2.13
2022-10-26T12:31:33.955Z,2.08
2022-10-26T12:34:01.481Z,1.55
2022-10-26T12:36:49.998Z,1.70
2022-10-26T12:39:37.458Z,2.38
2022-10-26T12:42:11.185Z,2.47
2022-10-26T12:44:39.694Z,2.70
2022-10-26T12:47:07.503Z,2.38
2022-10-26T12:50:09.124Z,1.83
2022-10-26T12:52:42.641Z,1.90
2022-10-26T12:55:13.039Z,2.30
2022-10-26T12:58:00.229Z,2.20
2022-10-26T13:00:27.947Z,1.50
2022-10-26T13:03:14.003Z,2.00
2022-10-26T13:05:41.333Z,2.05
2022-10-26T13:08:13.639Z,1.80
2022-10-26T13:10:44.109Z,1.65
2022-10-26T13:13:20.906Z,1.80
2022-10-26T13:15:56.387Z,2.00
2022-10-26T13:18:24.073Z,1.90
2022-10-26T13:21:06.250Z,1.88
2022-10-26T13:23:35.106Z,2.15
2022-10-26T13:26:21.296Z,1.85
2022-10-26T13:29:02.241Z,1.90
2022-10-26T13:31:32.848Z,2.15
2022-10-26T13:34:12.798Z,2.58
2022-10-26T13:37:03.643Z,1.95
2022-10-26T13:39:33.429Z,2.83
2022-10-26T13:42:01.075Z,2.10
2022-10-26T13:44:59.131Z,1.67
2022-10-26T13:47:41.212Z,1.60
2022-10-26T13:50:11.989Z,1.67
2022-10-26T13:52:42.105Z,1.88
2022-10-26T13:55:21.693Z,1.67
2022-10-26T13:58:12.125Z,2.05
2022-10-26T14:00:39.518Z,1.98
2022-10-26T14:03:14.739Z,1.90
2022-10-26T14:05:46.229Z,2.60
2022-10-26T14:08:17.286Z,2.33
2022-10-26T14:10:52.220Z,1.98
2022-10-26T14:13:24.407Z,2.25
2022-10-26T14:15:51.900Z,2.00
2022-10-26T14:18:22.170Z,1.85
2022-10-26T14:23:30.372Z,2.10
2022-10-26T14:25:59.590Z,4.10
2022-10-26T14:28:28.653Z,4.57
2022-10-26T14:31:13.998Z,3.70
2022-10-26T14:33:44.012Z,3.45
2022-10-26T14:36:11.726Z,3.13
2022-10-26T14:38:51.600Z,2.80
2022-10-26T14:41:19.309Z,2.35
2022-10-26T14:43:47.171Z,2.17
2022-10-26T14:46:18.995Z,2.25
2022-10-26T14:49:38.468Z,2.33
2022-10-26T14:52:06.593Z,4.00
2022-10-26T14:54:34.911Z,3.95
2022-10-26T14:57:08.662Z,4.70
2022-10-26T14:59:36.139Z,5.25
2022-10-26T15:02:17.508Z,4.30
2022-10-26T15:05:23.683Z,5.72
2022-10-26T15:07:51.861Z,3.55
2022-10-26T15:10:37.831Z,4.82
2022-10-26T15:13:11.875Z,4.20
2022-10-26T15:15:39.851Z,3.72
2022-10-26T15:18:21.945Z,3.45
2022-10-26T15:20:50.079Z,2.30
2022-10-26T15:23:17.994Z,2.30
2022-10-26T15:25:52.880Z,2.55
2022-10-26T15:28:24.849Z,2.10
2022-10-26T15:31:03.920Z,2.40
2022-10-26T15:33:31.854Z,2.30
2022-10-26T15:36:23.479Z,1.90
2022-10-26T15:38:51.766Z,2.50
2022-10-26T15:41:21.415Z,2.38
2022-10-26T15:43:49.650Z,2.40
2022-10-26T15:46:16.985Z,2.47
2022-10-26T15:48:49.241Z,2.17
2022-10-26T15:51:16.984Z,2.00
2022-10-26T15:53:44.300Z,2.67
2022-10-26T15:56:16.862Z,2.40
2022-10-26T15:58:44.393Z,2.42
2022-10-26T16:01:18.557Z,2.13
2022-10-26T16:03:46.033Z,2.42
2022-10-26T16:06:16.558Z,2.30
2022-10-26T16:08:46.623Z,1.95
2022-10-26T16:11:14.037Z,2.15
2022-10-26T16:13:41.451Z,3.15
2022-10-26T16:16:13.036Z,2.85
2022-10-26T16:18:40.533Z,2.38
2022-10-26T16:21:11.370Z,3.40
2022-10-26T16:23:38.774Z,3.92
2022-10-26T16:26:06.087Z,4.20
2022-10-26T16:28:33.630Z,4.18
2022-10-26T16:31:05.292Z,5.18
2022-10-26T16:33:32.826Z,3.83
2022-10-26T16:36:00.597Z,5.70
2022-10-26T16:38:28.552Z,5.93
2022-10-26T16:41:02.454Z,4.97
2022-10-26T16:43:32.551Z,4.07
2022-10-26T16:46:00.219Z,3.78
2022-10-26T16:48:27.702Z,4.60
2022-10-26T16:50:55.191Z,4.65
2022-10-26T16:53:22.652Z,3.88
2022-10-26T16:55:50.027Z,3.85
2022-10-26T16:58:17.649Z,5.20
2022-10-26T17:00:45.077Z,3.28
2022-10-26T17:03:12.437Z,3.17
2022-10-26T17:05:39.833Z,4.70
2022-10-26T17:08:08.104Z,3.88
2022-10-26T17:10:35.419Z,3.60
2022-10-26T17:13:03.915Z,3.50
2022-10-26T17:15:32.811Z,3.30
2022-10-26T17:18:00.850Z,3.65
2022-10-26T17:20:28.333Z,2.85
2022-10-26T17:22:57.422Z,3.38
2022-10-26T17:25:24.908Z,3.08
2022-10-26T17:27:52.394Z,3.35
2022-10-26T17:30:19.850Z,3.15
2022-10-26T17:32:47.236Z,3.05
2022-10-26T17:35:16.933Z,3.33
2022-10-26T17:37:44.466Z,3.25
2022-10-26T17:40:12.178Z,4.35
2022-10-26T17:42:40.713Z,4.10
2022-10-26T17:45:09.761Z,4.85
2022-10-26T17:47:37.108Z,4.13
2022-10-26T17:50:05.023Z,3.83
2022-10-26T17:52:32.432Z,3.75
2022-10-26T17:55:01.899Z,3.90
2022-10-26T17:57:30.649Z,3.78
2022-10-26T17:59:57.996Z,3.75
2022-10-26T18:02:25.803Z,4.30
2022-10-26T18:04:53.226Z,3.95
2022-10-26T18:07:20.742Z,4.00
2022-10-26T18:09:48.104Z,4.22
2022-10-26T18:12:15.570Z,5.95
2022-10-26T18:14:43.303Z,5.18
2022-10-26T18:17:10.733Z,5.32
2022-10-26T18:19:38.188Z,4.40
2022-10-26T18:22:05.647Z,4.53
2022-10-26T18:24:32.981Z,4.63
2022-10-26T18:27:00.623Z,4.85
2022-10-26T18:29:28.216Z,5.00
2022-10-26T18:31:56.879Z,3.83
2022-10-26T18:34:24.325Z,3.90
2022-10-26T18:36:51.945Z,3.95
2022-10-26T18:39:19.340Z,3.88
2022-10-26T18:41:46.870Z,3.78
2022-10-26T18:44:14.248Z,4.25
2022-10-26T18:46:42.670Z,4.18
2022-10-26T18:49:10.062Z,4.85
2022-10-26T18:51:37.580Z,4.90
2022-10-26T18:54:05.229Z,4.50
2022-10-26T18:56:33.042Z,4.10
2022-10-26T18:59:01.084Z,4.85
2022-10-26T19:01:30.556Z,5.15
2022-10-26T19:03:59.925Z,4.72
2022-10-26T19:06:31.362Z,4.45
2022-10-26T19:08:59.036Z,5.60
2022-10-26T19:11:27.569Z,5.90
2022-10-26T19:13:55.218Z,5.35
2022-10-26T19:19:11.157Z,5.43
2022-10-26T19:21:38.531Z,4.85
2022-10-26T19:24:05.992Z,5.68
2022-10-26T19:26:36.751Z,4.50
2022-10-26T19:29:06.790Z,5.43
2022-10-26T19:31:35.833Z,5.32
2022-10-26T19:34:03.633Z,5.43
2022-10-26T19:36:31.094Z,5.97
2022-10-26T19:38:58.599Z,4.95
2022-10-26T19:41:31.327Z,5.28
2022-10-26T19:46:32.817Z,4.82
2022-10-26T19:49:01.146Z,4.70
2022-10-26T19:51:30.277Z,4.70
2022-10-26T19:54:03.951Z,5.43
2022-10-26T19:56:32.787Z,5.32
2022-10-26T19:59:01.013Z,5.43
2022-10-26T20:01:28.584Z,6.50
2022-10-26T20:03:56.026Z,6.18
2022-10-26T20:06:23.390Z,5.53
2022-10-26T20:08:50.859Z,5.90
2022-10-26T20:11:19.279Z,7.00
2022-10-26T20:13:47.794Z,6.80
2022-10-26T20:16:15.895Z,6.55
2022-10-26T20:18:47.543Z,6.22
2022-10-26T20:21:17.046Z,6.68
2022-10-26T20:23:45.452Z,5.97
2022-10-26T20:26:20.088Z,5.72
2022-10-26T20:28:49.131Z,5.78
2022-10-26T20:31:16.600Z,6.22
2022-10-26T20:33:44.093Z,6.70
2022-10-26T20:36:11.782Z,6.45
2022-10-26T20:38:40.009Z,6.20
2022-10-26T20:41:10.641Z,5.90
2022-10-26T20:43:39.479Z,5.38
2022-10-26T20:46:07.903Z,6.80
2022-10-26T20:48:35.594Z,6.68
2022-10-26T20:51:10.845Z,5.45
2022-10-26T20:53:49.003Z,5.45
2022-10-26T20:56:26.414Z,6.00
2022-10-26T20:58:56.143Z,5.43
2022-10-26T21:01:26.767Z,6.55
2022-10-26T21:03:54.902Z,6.63
2022-10-26T21:06:22.394Z,6.15
2022-10-26T21:08:50.855Z,5.20
2022-10-26T21:11:19.058Z,6.15
2022-10-26T21:13:49.272Z,5.97
2022-10-26T21:16:17.369Z,5.00
2022-10-26T21:18:45.128Z,5.53
2022-10-26T21:21:12.497Z,5.28
2022-10-26T21:23:41.075Z,6.07
2022-10-26T21:26:08.921Z,5.43
2022-10-26T21:28:41.851Z,5.30
2022-10-26T21:31:13.511Z,4.43
2022-10-26T21:33:40.814Z,5.40
2022-10-26T21:36:12.080Z,4.63
2022-10-26T21:38:40.386Z,4.35
2022-10-26T21:41:11.720Z,4.05
2022-10-26T21:43:39.727Z,4.90
2022-10-26T21:46:07.478Z,4.20
2022-10-26T21:48:35.630Z,4.30
2022-10-26T21:51:04.476Z,3.60
2022-10-26T21:53:31.940Z,3.80
2022-10-26T21:56:07.864Z,4.30
2022-10-26T21:58:35.261Z,3.90
2022-10-26T22:01:09.778Z,2.92
2022-10-26T22:03:37.581Z,3.63
2022-10-26T22:06:05.803Z,3.58
2022-10-26T22:08:33.272Z,3.10
2022-10-26T22:11:24.040Z,3.63
2022-10-26T22:13:52.204Z,3.63
2022-10-26T22:16:20.994Z,3.85
2022-10-26T22:18:49.403Z,3.33
2022-10-26T22:21:17.770Z,4.00
2022-10-26T22:23:45.496Z,3.33
2022-10-26T22:26:14.867Z,3.17
2022-10-26T22:28:43.149Z,5.80
2022-10-26T22:31:13.553Z,3.42
2022-10-26T22:36:09.396Z,3.58
2022-10-26T22:38:36.939Z,3.22
2022-10-26T22:41:04.721Z,3.53
2022-10-26T22:43:32.074Z,3.60
2022-10-26T22:46:09.066Z,2.83
2022-10-26T22:48:36.980Z,3.20
2022-10-26T22:51:09.034Z,2.65
2022-10-26T22:53:36.440Z,3.20
2022-10-26T22:56:05.636Z,3.20
2022-10-26T22:58:32.988Z,3.60
2022-10-26T23:01:07.501Z,3.25
2022-10-26T23:03:35.216Z,3.50
2022-10-26T23:06:02.903Z,2.88
2022-10-26T23:08:30.355Z,2.78
2022-10-26T23:11:01.649Z,3.30
2022-10-26T23:13:29.026Z,3.25
2022-10-26T23:15:56.980Z,2.53
2022-10-26T23:18:24.444Z,3.25
2022-10-26T23:20:52.081Z,3.00
2022-10-26T23:23:19.461Z,3.03
2022-10-26T23:25:46.790Z,3.28
2022-10-26T23:28:14.141Z,2.97
2022-10-26T23:30:41.428Z,2.80
2022-10-26T23:33:08.822Z,3.10
2022-10-26T23:35:36.135Z,2.95
2022-10-26T23:38:03.531Z,3.47
2022-10-26T23:40:30.889Z,2.80
2022-10-26T23:42:58.247Z,2.85
2022-10-26T23:45:25.572Z,3.22
2022-10-26T23:47:53.256Z,3.65
2022-10-26T23:50:20.888Z,2.97
2022-10-26T23:52:51.050Z,2.83
2022-10-26T23:55:18.409Z,3.05
2022-10-26T23:57:45.835Z,3.50
